Time;durP1;ratioP1;P1;durP2;ratioP2;P2;SDS_P1;SDS_P2;PMS_P1;PMS_P2;Temp;Humidity;BMP_temperature;BMP_pressure;BME280_temperature;BME280_humidity;BME280_pressure;Samples;Min_cycle;Max_cycle;Signal;HPM_P1;HPM_P2
2021/12/18 00:00:29;;;;;;;6.03;2.40;;;;;;;;;;4986519;28;20080;-68
2021/12/18 00:02:54;;;;;;;8.15;2.40;;;6.00;99.90;;;;;;4986845;28;20410;-70
2021/12/18 00:05:20;;;;;;;5.22;2.50;;;;;;;;;;4990487;28;20041;-68
2021/12/18 00:07:46;;;;;;;6.78;3.03;;;;;;;;;;4982181;28;20040;-68
2021/12/18 00:10:12;;;;;;;4.40;2.50;;;;;;;;;;4986827;28;20034;-68
2021/12/18 00:12:42;;;;;;;6.95;2.85;;;;;;;;;;4988635;28;20136;-68
2021/12/18 00:15:08;;;;;;;5.07;2.42;;;;;;;;;;5001759;28;20060;-68
2021/12/18 00:17:34;;;;;;;6.85;2.78;;;;;;;;;;4987295;28;20030;-69
2021/12/18 00:20:00;;;;;;;7.97;3.60;;;;;;;;;;4990501;28;20046;-68
2021/12/18 00:22:25;;;;;;;8.30;3.78;;;6.00;99.90;;;;;;4986593;28;20030;-68
2021/12/18 00:24:51;;;;;;;10.57;3.47;;;;;;;;;;4988387;28;20497;-68
2021/12/18 00:27:17;;;;;;;6.90;3.17;;;;;;;;;;4988648;28;20095;-68
2021/12/18 00:29:44;;;;;;;11.05;3.47;;;5.70;99.90;;;;;;4986569;28;20038;-68
2021/12/18 00:32:09;;;;;;;14.15;4.07;;;;;;;;;;4987651;28;20025;-69
2021/12/18 00:34:39;;;;;;;12.95;4.15;;;;;;;;;;4987251;28;20034;-68
2021/12/18 00:37:05;;;;;;;13.75;4.43;;;;;;;;;;4999209;28;20160;-69
2021/12/18 00:39:32;;;;;;;13.95;4.10;;;;;;;;;;4992300;28;20076;-67
2021/12/18 00:42:20;;;;;;;11.18;4.70;;;;;;;;;;4966671;28;20118;-68
2021/12/18 00:44:46;;;;;;;14.48;4.53;;;;;;;;;;4985905;28;20037;-68
2021/12/18 00:47:12;;;;;;;13.27;4.70;;;;;;;;;;4989953;28;20034;-69
2021/12/18 00:49:38;;;;;;;15.05;4.97;;;;;;;;;;4983213;28;20505;-68
2021/12/18 00:52:04;;;;;;;13.90;4.55;;;5.80;99.90;;;;;;5000471;28;20040;-68
2021/12/18 00:54:31;;;;;;;11.77;4.40;;;;;;;;;;4986464;28;20113;-68
2021/12/18 00:56:57;;;;;;;18.70;5.20;;;;;;;;;;4988389;28;20108;-68
2021/12/18 00:59:23;;;;;;;12.20;4.65;;;;;;;;;;4988055;28;20078;-68
2021/12/18 01:01:48;;;;;;;15.32;4.82;;;5.20;99.90;;;;;;4985366;28;20482;-68
2021/12/18 01:04:14;;;;;;;11.90;4.78;;;;;;;;;;4996267;28;20070;-68
2021/12/18 01:06:40;;;;;;;26.98;5.93;;;;;;;;;;4992447;28;20045;-69
2021/12/18 01:09:09;;;;;;;18.70;5.25;;;;;;;;;;4984060;28;20041;-69
2021/12/18 01:11:43;;;;;;;19.00;4.97;;;;;;;;;;4985514;28;21019;-69
2021/12/18 01:24:30;;;;;;;19.08;5.47;;;;;;;;;;4988409;28;20040;-69
2021/12/18 01:26:56;;;;;;;14.85;4.63;;;;;;;;;;4987051;28;20049;-68
2021/12/18 01:29:22;;;;;;;15.90;5.03;;;;;;;;;;4984827;28;20038;-68
2021/12/18 01:31:48;;;;;;;13.32;4.82;;;;;;;;;;4987649;28;20470;-68
2021/12/18 01:34:14;;;;;;;14.93;5.05;;;;;;;;;;4981271;28;20109;-68
2021/12/18 01:36:40;;;;;;;13.00;4.57;;;;;;;;;;4987153;28;20685;-69
2021/12/18 01:39:06;;;;;;;20.20;5.18;;;;;;;;;;4996422;28;20561;-68
2021/12/18 01:41:42;;;;;;;23.80;6.03;;;;;;;;;;4982731;28;20078;-68
2021/12/18 01:47:03;;;;;;;;;;;5.50;99.90;;;;;;4986518;28;20042;-68
2021/12/18 01:52:20;;;;;;;22.08;5.13;;;;;;;;;;4987758;28;20717;-69
2021/12/18 01:54:47;;;;;;;17.67;5.10;;;;;;;;;;4982875;28;20129;-69
2021/12/18 01:57:13;;;;;;;24.30;6.07;;;;;;;;;;4986371;28;20022;-68
2021/12/18 01:59:39;;;;;;;18.92;5.78;;;;;;;;;;4987690;28;20034;-68
2021/12/18 02:02:05;;;;;;;18.92;5.88;;;;;;;;;;4985227;28;20076;-68
2021/12/18 02:04:31;;;;;;;25.50;6.32;;;;;;;;;;4985421;28;20486;-68
2021/12/18 02:06:57;;;;;;;30.15;6.95;;;;;;;;;;4988397;28;20038;-69
2021/12/18 02:09:27;;;;;;;25.10;6.50;;;;;;;;;;4997893;28;20074;-68
2021/12/18 02:11:54;;;;;;;29.88;7.30;;;;;;;;;;4991789;28;20429;-68
2021/12/18 02:14:34;;;;;;;29.30;7.03;;;;;;;;;;4991892;28;20033;-69
2021/12/18 02:19:55;;;;;;;23.42;6.60;;;;;;;;;;4987772;28;20528;-68
2021/12/18 02:22:23;;;;;;;23.20;6.57;;;;;;;;;;4981899;28;20649;-68
2021/12/18 02:24:49;;;;;;;23.13;6.43;;;;;;;;;;4985576;28;20062;-68
2021/12/18 02:27:15;;;;;;;26.55;6.88;;;;;;;;;;4986229;28;20073;-68
2021/12/18 02:29:42;;;;;;;32.42;7.30;;;;;;;;;;4983470;28;20049;-68
2021/12/18 02:32:08;;;;;;;33.63;7.70;;;;;;;;;;4985814;28;20049;-68
2021/12/18 02:34:37;;;;;;;25.48;7.20;;;;;;;;;;4987534;28;20038;-68
2021/12/18 02:37:06;;;;;;;30.70;7.30;;;;;;;;;;4985798;28;20034;-68
2021/12/18 02:40:45;;;;;;;31.08;7.45;;;;;;;;;;4993809;28;20045;-69
2021/12/18 02:42:32;;;;;;;35.33;8.32;;;;;;;;;;4986669;28;20161;-68
2021/12/18 02:44:58;;;;;;;44.13;8.77;;;;;;;;;;4993943;28;20092;-71
2021/12/18 02:47:24;;;;;;;45.35;9.52;;;;;;;;;;4988527;28;20421;-67
2021/12/18 02:49:50;;;;;;;44.85;10.13;;;;;;;;;;4986754;28;20038;-68
2021/12/18 02:52:17;;;;;;;47.75;9.40;;;;;;;;;;4993483;28;20033;-68
2021/12/18 02:54:43;;;;;;;44.22;9.50;;;;;;;;;;4983468;28;20030;-68
2021/12/18 02:57:09;;;;;;;44.85;9.50;;;;;;;;;;4990319;28;20742;-68
2021/12/18 02:59:35;;;;;;;53.20;10.18;;;;;;;;;;4988255;28;20037;-68
2021/12/18 03:02:03;;;;;;;44.38;9.05;;;;;;;;;;4985919;28;20472;-68
2021/12/18 03:04:34;;;;;;;50.30;10.27;;;;;;;;;;4990364;28;20117;-68
2021/12/18 03:07:02;;;;;;;50.35;9.00;;;;;;;;;;4988063;28;20030;-68
2021/12/18 03:25:38;;;;;;;43.10;8.38;;;;;;;;;;4989650;28;20041;-67
2021/12/18 03:28:04;;;;;;;47.38;8.88;;;;;;;;;;5002183;28;20126;-67
2021/12/18 03:30:30;;;;;;;39.92;8.15;;;;;;;;;;4986851;28;20030;-67
2021/12/18 03:32:56;;;;;;;44.28;8.32;;;5.80;99.90;;;;;;4991315;28;20668;-67
2021/12/18 03:35:22;;;;;;;47.22;9.68;;;;;;;;;;4984904;28;20134;-67
2021/12/18 03:37:48;;;;;;;39.05;8.25;;;;;;;;;;4989123;28;20034;-67
2021/12/18 03:40:14;;;;;;;44.65;8.50;;;;;;;;;;4989275;28;20088;-67
2021/12/18 03:42:40;;;;;;;37.58;7.82;;;;;;;;;;4987815;28;20038;-67
2021/12/18 03:45:06;;;;;;;44.50;8.43;;;;;;;;;;4991198;28;20121;-68
2021/12/18 03:47:32;;;;;;;43.25;8.38;;;;;;;;;;4985230;28;20544;-67
2021/12/18 03:49:58;;;;;;;41.40;8.25;;;;;;;;;;4985958;28;20040;-67
2021/12/18 03:52:24;;;;;;;41.95;8.27;;;;;;;;;;4993606;28;20060;-67
2021/12/18 03:54:50;;;;;;;37.50;7.82;;;;;;;;;;4985374;28;20573;-68
2021/12/18 03:57:16;;;;;;;38.05;8.65;;;6.10;99.90;;;;;;4988237;28;20109;-67
2021/12/18 03:59:42;;;;;;;40.53;8.18;;;;;;;;;;4991627;28;20041;-63
2021/12/18 04:02:08;;;;;;;49.85;9.20;;;;;;;;;;4984550;28;20045;-63
2021/12/18 04:04:34;;;;;;;37.53;8.48;;;;;;;;;;4989601;28;20137;-62
2021/12/18 04:07:00;;;;;;;42.10;8.02;;;;;;;;;;4990485;28;20030;-63
2021/12/18 04:09:28;;;;;;;41.00;8.60;;;6.20;99.90;;;;;;4986597;28;20621;-62
2021/12/18 04:11:54;;;;;;;46.22;8.73;;;6.00;99.90;;;;;;4988544;28;20109;-62
2021/12/18 04:14:20;;;;;;;47.35;8.75;;;;;;;;;;4988426;28;20069;-62
2021/12/18 04:16:46;;;;;;;39.95;9.00;;;;;;;;;;4987688;28;20061;-62
2021/12/18 04:19:12;;;;;;;46.85;9.95;;;;;;;;;;4992820;28;20034;-62
2021/12/18 04:21:38;;;;;;;40.95;8.85;;;;;;;;;;4983277;28;20038;-63
2021/12/18 04:24:04;;;;;;;45.00;9.27;;;;;;;;;;4988406;28;20060;-63
2021/12/18 04:26:30;;;;;;;43.60;9.00;;;;;;;;;;4989174;28;20034;-63
2021/12/18 04:28:56;;;;;;;49.88;9.88;;;;;;;;;;4984768;28;20563;-63
2021/12/18 04:31:22;;;;;;;43.58;9.40;;;;;;;;;;4989556;28;20057;-62
2021/12/18 04:33:48;;;;;;;50.42;10.32;;;;;;;;;;4989929;28;20069;-63
2021/12/18 04:36:14;;;;;;;48.55;8.45;;;;;;;;;;4989040;28;20116;-63
2021/12/18 04:38:40;;;;;;;53.38;9.90;;;;;;;;;;4988557;28;20706;-63
2021/12/18 04:41:06;;;;;;;47.08;9.95;;;;;;;;;;4997735;28;20545;-62
2021/12/18 04:43:32;;;;;;;49.33;9.85;;;;;;;;;;4985766;28;20030;-63
2021/12/18 04:45:58;;;;;;;51.95;11.30;;;;;;;;;;4996710;28;20719;-63
2021/12/18 04:48:24;;;;;;;50.72;11.40;;;;;;;;;;4984055;28;20022;-63
2021/12/18 04:50:50;;;;;;;50.88;10.98;;;;;;;;;;4988909;28;20120;-63
2021/12/18 04:53:16;;;;;;;46.10;11.15;;;;;;;;;;4991011;28;20018;-63
2021/12/18 04:55:42;;;;;;;46.30;10.35;;;;;;;;;;4984387;28;20554;-62
2021/12/18 04:58:08;;;;;;;45.15;11.35;;;;;;;;;;4989768;28;20030;-63
2021/12/18 05:00:39;;;;;;;44.45;11.38;;;;;;;;;;4984619;28;20043;-63
2021/12/18 05:03:06;;;;;;;41.97;10.95;;;5.80;99.90;;;;;;4990018;28;20042;-63
2021/12/18 05:05:32;;;;;;;37.05;10.68;;;;;;;;;;4990506;28;20875;-62
2021/12/18 05:07:58;;;;;;;39.00;10.85;;;;;;;;;;4982849;28;20046;-63
2021/12/18 05:10:24;;;;;;;38.65;11.02;;;;;;;;;;4987060;28;20029;-62
2021/12/18 05:12:50;;;;;;;32.90;10.55;;;;;;;;;;4984564;28;20038;-63
2021/12/18 05:15:16;;;;;;;32.47;10.23;;;;;;;;;;4982218;28;20037;-63
2021/12/18 05:17:42;;;;;;;30.67;10.00;;;;;;;;;;4981815;28;20026;-63
2021/12/18 05:20:08;;;;;;;30.67;10.65;;;;;;;;;;4982577;28;20576;-63
2021/12/18 05:22:34;;;;;;;28.25;9.63;;;;;;;;;;4983545;28;20042;-63
2021/12/18 05:25:00;;;;;;;30.70;9.60;;;;;;;;;;4987579;28;20042;-63
2021/12/18 05:27:26;;;;;;;33.92;9.75;;;;;;;;;;4984602;28;20038;-62
2021/12/18 05:29:52;;;;;;;25.13;9.45;;;;;;;;;;4983916;28;20049;-63
2021/12/18 05:32:18;;;;;;;25.52;9.23;;;;;;;;;;4989071;28;20615;-62
2021/12/18 05:34:43;;;;;;;23.67;9.05;;;5.60;99.90;;;;;;4984650;28;20057;-63
2021/12/18 05:39:38;;;;;;;27.40;8.85;;;;;;;;;;4987319;28;20037;-63
2021/12/18 05:42:04;;;;;;;26.40;8.25;;;;;;;;;;4984712;28;20483;-62
2021/12/18 05:44:30;;;;;;;23.05;8.40;;;;;;;;;;4987478;28;20042;-63
2021/12/18 05:46:56;;;;;;;30.48;10.65;;;;;;;;;;4985859;28;20093;-63
2021/12/18 05:49:22;;;;;;;26.50;10.32;;;;;;;;;;4988670;28;20034;-63
2021/12/18 05:51:48;;;;;;;31.50;11.02;;;;;;;;;;4988242;28;20067;-63
2021/12/18 05:54:14;;;;;;;26.25;10.50;;;6.00;99.90;;;;;;4983248;28;20030;-62
2021/12/18 05:56:40;;;;;;;26.55;10.05;;;;;;;;;;4985915;28;20478;-64
2021/12/18 05:59:06;;;;;;;26.23;9.70;;;;;;;;;;4991510;28;20080;-63
2021/12/18 06:01:32;;;;;;;30.83;11.13;;;;;;;;;;4983248;28;20046;-63
2021/12/18 06:03:58;;;;;;;38.45;10.43;;;;;;;;;;4987777;28;20044;-63
2021/12/18 06:06:24;;;;;;;31.20;11.18;;;;;;;;;;4995675;28;20070;-63
2021/12/18 06:08:50;;;;;;;33.75;10.27;;;;;;;;;;4987198;28;20038;-63
2021/12/18 06:11:17;;;;;;;28.55;10.55;;;;;;;;;;4989665;28;20030;-63
2021/12/18 06:13:43;;;;;;;32.40;11.25;;;;;;;;;;4987427;28;20030;-62
2021/12/18 06:16:09;;;;;;;29.05;10.48;;;;;;;;;;4984341;28;20125;-63
2021/12/18 06:18:35;;;;;;;31.95;10.88;;;;;;;;;;4989275;28;20084;-63
2021/12/18 06:21:01;;;;;;;27.45;9.70;;;;;;;;;;4983825;28;20042;-63
2021/12/18 06:23:27;;;;;;;25.20;8.90;;;;;;;;;;4986937;28;20774;-62
2021/12/18 06:25:53;;;;;;;26.70;8.80;;;;;;;;;;4990640;28;20072;-63
2021/12/18 06:28:19;;;;;;;23.45;8.70;;;;;;;;;;4987906;28;20037;-63
2021/12/18 06:30:45;;;;;;;26.95;9.38;;;;;;;;;;4988808;28;20136;-63
2021/12/18 06:33:11;;;;;;;24.83;9.68;;;5.80;99.90;;;;;;4987144;28;20033;-63
2021/12/18 06:35:36;;;;;;;26.77;10.43;;;;;;;;;;4985770;28;20030;-63
2021/12/18 06:38:02;;;;;;;31.75;11.00;;;;;;;;;;4994365;28;20030;-63
2021/12/18 06:40:28;;;;;;;26.25;10.15;;;;;;;;;;4985519;28;20029;-63
2021/12/18 06:42:54;;;;;;;28.20;10.23;;;;;;;;;;4987872;28;20036;-63
2021/12/18 06:45:20;;;;;;;29.35;11.25;;;;;;;;;;4992839;28;20116;-62
2021/12/18 06:47:46;;;;;;;29.83;11.98;;;;;;;;;;4988030;28;20481;-63
2021/12/18 06:50:12;;;;;;;33.97;12.57;;;6.20;99.90;;;;;;4989396;28;20031;-63
2021/12/18 06:52:38;;;;;;;29.83;11.93;;;;;;;;;;4993267;28;20485;-62
2021/12/18 06:55:04;;;;;;;32.95;12.60;;;;;;;;;;4985177;28;20034;-63
2021/12/18 06:57:29;;;;;;;33.08;12.13;;;5.60;99.90;;;;;;4993390;28;20029;-63
2021/12/18 06:59:55;;;;;;;26.70;10.27;;;;;;;;;;4988401;28;20034;-63
2021/12/18 07:02:21;;;;;;;30.80;10.88;;;;;;;;;;4987243;28;20878;-63
2021/12/18 07:04:47;;;;;;;29.60;9.20;;;;;;;;;;4990075;28;20070;-63
2021/12/18 07:07:13;;;;;;;25.92;10.20;;;;;;;;;;4982181;28;20039;-63
2021/12/18 07:09:39;;;;;;;31.25;10.50;;;;;;;;;;4985526;28;20144;-63
2021/12/18 07:12:05;;;;;;;31.85;9.60;;;;;;;;;;4988584;28;20857;-63
2021/12/18 07:14:31;;;;;;;27.95;10.52;;;;;;;;;;4983629;28;20529;-63
2021/12/18 07:16:57;;;;;;;29.30;9.65;;;;;;;;;;4984039;28;20085;-63
2021/12/18 07:19:23;;;;;;;35.58;9.85;;;;;;;;;;4981007;28;20030;-63
2021/12/18 07:21:48;;;;;;;29.27;10.00;;;5.90;99.90;;;;;;4980347;28;20031;-63
2021/12/18 07:24:14;;;;;;;30.15;9.43;;;;;;;;;;4988046;28;20057;-64
2021/12/18 07:26:40;;;;;;;26.80;8.65;;;;;;;;;;4989443;28;20553;-63
2021/12/18 07:29:06;;;;;;;26.50;8.13;;;;;;;;;;4986376;28;20041;-63
2021/12/18 07:31:32;;;;;;;24.83;8.68;;;;;;;;;;4985703;28;20034;-63
2021/12/18 07:33:58;;;;;;;31.73;9.07;;;;;;;;;;4988462;28;20029;-63
2021/12/18 07:36:24;;;;;;;26.05;8.82;;;;;;;;;;4985767;28;20029;-63
2021/12/18 07:38:50;;;;;;;36.72;9.68;;;;;;;;;;4989789;28;20040;-63
2021/12/18 07:41:16;;;;;;;33.70;10.68;;;;;;;;;;4986760;28;20026;-63
2021/12/18 07:43:42;;;;;;;32.33;9.52;;;;;;;;;;4987010;28;20026;-64
2021/12/18 07:46:08;;;;;;;36.53;9.77;;;;;;;;;;4997815;28;20820;-63
2021/12/18 07:48:34;;;;;;;41.50;10.45;;;;;;;;;;4984042;28;20156;-64
2021/12/18 07:51:00;;;;;;;38.17;9.35;;;;;;;;;;4989303;28;20410;-65
2021/12/18 07:53:26;;;;;;;38.42;9.98;;;;;;;;;;4982877;28;20022;-64
2021/12/18 07:55:52;;;;;;;40.05;10.90;;;;;;;;;;4986759;28;20534;-64
2021/12/18 07:58:18;;;;;;;43.40;12.48;;;;;;;;;;4988741;28;20027;-64
2021/12/18 08:00:44;;;;;;;42.13;12.73;;;;;;;;;;4983983;28;20037;-63
2021/12/18 08:03:10;;;;;;;46.17;12.25;;;;;;;;;;4985636;28;20035;-63
2021/12/18 08:05:36;;;;;;;41.05;13.45;;;5.50;99.90;;;;;;4965663;28;20041;-63
2021/12/18 08:08:01;;;;;;;41.88;12.32;;;5.70;99.90;;;;;;4986822;28;21036;-63
2021/12/18 08:10:27;;;;;;;32.83;9.38;;;;;;;;;;4984855;28;20037;-63
2021/12/18 08:12:53;;;;;;;37.25;11.70;;;;;;;;;;4989905;28;20034;-63
2021/12/18 08:15:19;;;;;;;27.67;7.97;;;;;;;;;;4984510;28;20057;-63
2021/12/18 08:17:45;;;;;;;28.50;7.30;;;;;;;;;;4991473;28;20529;-63
2021/12/18 08:20:11;;;;;;;28.17;6.97;;;5.80;99.90;;;;;;4988914;28;20053;-63
2021/12/18 08:22:37;;;;;;;25.23;7.53;;;;;;;;;;4988185;28;20092;-63
2021/12/18 08:25:03;;;;;;;64.03;23.50;;;;;;;;;;4990938;28;20051;-64
2021/12/18 08:27:29;;;;;;;27.20;8.07;;;;;;;;;;4986683;28;20033;-64
2021/12/18 08:29:55;;;;;;;15.45;6.03;;;;;;;;;;4985739;28;20050;-64
2021/12/18 08:32:22;;;;;;;18.17;5.90;;;;;;;;;;4988093;28;20297;-63
2021/12/18 08:34:48;;;;;;;14.80;4.72;;;;;;;;;;4984246;28;20034;-63
2021/12/18 08:37:14;;;;;;;20.05;7.22;;;;;;;;;;4989030;28;20030;-63
2021/12/18 08:39:40;;;;;;;20.65;7.80;;;;;;;;;;4983591;28;20046;-64
2021/12/18 08:42:06;;;;;;;23.77;8.50;;;;;;;;;;4984234;28;20463;-64
2021/12/18 08:44:34;;;;;;;20.80;6.30;;;5.30;99.90;;;;;;4988405;28;20125;-63
2021/12/18 08:47:00;;;;;;;23.52;8.10;;;;;;;;;;4979408;28;20038;-63
2021/12/18 08:49:26;;;;;;;18.75;6.28;;;;;;;;;;4982802;28;20124;-64
2021/12/18 08:51:52;;;;;;;24.80;7.95;;;;;;;;;;4987169;28;20033;-64
2021/12/18 08:54:18;;;;;;;27.10;7.55;;;;;;;;;;4981992;28;20030;-63
2021/12/18 08:56:44;;;;;;;28.05;7.55;;;;;;;;;;4998568;28;20485;-64
2021/12/18 08:59:10;;;;;;;23.08;7.25;;;;;;;;;;4981007;28;20089;-63
2021/12/18 09:01:36;;;;;;;30.50;8.95;;;;;;;;;;4977354;28;20064;-65
2021/12/18 09:04:02;;;;;;;26.92;8.50;;;;;;;;;;4986433;28;20038;-63
2021/12/18 09:06:28;;;;;;;23.50;7.10;;;;;;;;;;4984144;28;20045;-63
2021/12/18 09:08:54;;;;;;;27.08;7.28;;;;;;;;;;4985385;28;20045;-63
2021/12/18 09:11:20;;;;;;;30.60;9.00;;;;;;;;;;4985317;28;20030;-63
2021/12/18 09:13:46;;;;;;;41.83;10.00;;;;;;;;;;4981554;28;20034;-63
2021/12/18 09:16:12;;;;;;;27.83;8.15;;;;;;;;;;4988508;28;20402;-64
2021/12/18 09:18:38;;;;;;;43.15;9.88;;;;;;;;;;4990281;28;20805;-64
2021/12/18 09:21:04;;;;;;;37.53;9.18;;;;;;;;;;4984048;28;20076;-63
2021/12/18 09:23:30;;;;;;;48.72;10.65;;;;;;;;;;4988289;28;20030;-63
2021/12/18 09:25:56;;;;;;;50.97;13.52;;;;;;;;;;4979945;28;20034;-64
2021/12/18 09:28:22;;;;;;;53.20;12.65;;;;;;;;;;4981902;28;20427;-64
2021/12/18 09:30:48;;;;;;;60.05;14.38;;;;;;;;;;4988331;28;20066;-64
2021/12/18 09:33:15;;;;;;;74.95;16.55;;;5.60;99.90;;;;;;4980382;28;20026;-63
2021/12/18 09:35:41;;;;;;;53.40;12.55;;;;;;;;;;4984480;28;20073;-64
2021/12/18 09:38:07;;;;;;;59.63;13.63;;;;;;;;;;4982456;28;20114;-64
2021/12/18 09:40:33;;;;;;;50.75;11.68;;;;;;;;;;4983227;28;20573;-64
2021/12/18 09:42:59;;;;;;;44.50;11.02;;;5.90;99.90;;;;;;4985305;28;20034;-63
2021/12/18 09:45:25;;;;;;;58.47;11.57;;;;;;;;;;4984826;28;20112;-63
2021/12/18 09:47:51;;;;;;;43.45;11.20;;;;;;;;;;4980203;28;20030;-64
2021/12/18 09:50:17;;;;;;;43.92;9.98;;;;;;;;;;4975619;28;20788;-64
2021/12/18 09:52:43;;;;;;;41.83;11.02;;;;;;;;;;4970220;28;20031;-64
2021/12/18 09:55:09;;;;;;;39.00;9.90;;;;;;;;;;4981065;28;20505;-64
2021/12/18 09:57:35;;;;;;;45.10;10.93;;;;;;;;;;4983479;28;20040;-63
2021/12/18 10:00:01;;;;;;;39.88;11.30;;;;;;;;;;4982892;28;20037;-64
2021/12/18 10:02:26;;;;;;;40.28;12.85;;;6.50;99.90;;;;;;4985855;28;20117;-63
2021/12/18 10:04:52;;;;;;;37.35;10.55;;;6.20;99.90;;;;;;4987223;28;20034;-62
2021/12/18 10:07:18;;;;;;;39.47;11.55;;;;;;;;;;4979697;28;20097;-63
2021/12/18 10:09:44;;;;;;;38.88;11.98;;;;;;;;;;4983528;28;20133;-63
2021/12/18 10:12:09;;;;;;;46.70;14.52;;;6.20;99.90;;;;;;4980501;28;20040;-63
2021/12/18 10:14:35;;;;;;;38.15;10.82;;;;;;;;;;4985322;28;20041;-63
2021/12/18 10:17:01;;;;;;;32.28;9.02;;;6.20;99.90;;;;;;4984965;28;20030;-63
2021/12/18 10:19:26;;;;;;;28.75;7.95;;;6.10;99.90;;;;;;4984988;28;20033;-63
2021/12/18 10:21:52;;;;;;;34.63;8.38;;;;;;;;;;4988051;28;20557;-63
2021/12/18 10:24:18;;;;;;;33.15;8.30;;;6.40;99.90;;;;;;4990264;28;20571;-63
2021/12/18 10:26:45;;;;;;;32.53;8.52;;;6.40;99.90;;;;;;4982870;28;20045;-64
2021/12/18 10:29:11;;;;;;;29.30;7.97;;;6.50;99.90;;;;;;4978628;28;20045;-63
2021/12/18 10:31:36;;;;;;;30.95;7.57;;;5.60;99.90;;;;;;4977480;28;20031;-68
2021/12/18 10:34:02;;;;;;;20.48;6.60;;;;;;;;;;4974032;28;20022;-68
2021/12/18 10:36:27;;;;;;;23.38;6.60;;;6.30;99.90;;;;;;4969616;28;20108;-68
2021/12/18 10:38:55;;;;;;;23.30;6.88;;;6.10;99.90;;;;;;4974030;28;20027;-68
2021/12/18 10:41:21;;;;;;;22.20;7.05;;;6.50;99.90;;;;;;4978405;28;20018;-68
2021/12/18 10:43:46;;;;;;;22.05;6.47;;;6.50;99.90;;;;;;4971211;28;20524;-68
2021/12/18 10:46:12;;;;;;;18.13;5.70;;;6.60;99.90;;;;;;4980182;28;20026;-69
2021/12/18 10:48:37;;;;;;;15.68;6.03;;;6.60;99.90;;;;;;4980626;28;20043;-68
2021/12/18 10:51:03;;;;;;;16.75;5.50;;;6.20;99.90;;;;;;4974995;28;20041;-68
2021/12/18 10:53:30;;;;;;;14.73;4.72;;;6.50;99.90;;;;;;4981831;28;20084;-68
2021/12/18 10:55:56;;;;;;;14.32;4.20;;;6.60;99.90;;;;;;4983731;28;20091;-68
2021/12/18 10:58:21;;;;;;;10.23;4.13;;;6.60;99.90;;;;;;4986315;28;20054;-68
2021/12/18 11:00:47;;;;;;;11.65;4.25;;;6.50;99.90;;;;;;4981895;28;20642;-68
2021/12/18 11:03:12;;;;;;;15.65;5.53;;;6.50;99.90;;;;;;4977845;28;20031;-67
2021/12/18 11:05:38;;;;;;;13.85;4.80;;;7.30;99.90;;;;;;5001628;28;20577;-68
2021/12/18 11:08:03;;;;;;;12.98;4.05;;;6.40;99.90;;;;;;4959868;28;20895;-68
2021/12/18 11:13:38;;;;;;;19.85;5.72;;;6.80;99.90;;;;;;4983213;28;20064;-68
2021/12/18 11:15:58;;;;;;;14.57;4.57;;;6.60;99.90;;;;;;4979331;28;20301;-68
2021/12/18 11:18:24;;;;;;;10.20;4.68;;;7.30;99.90;;;;;;4993418;28;20026;-68
2021/12/18 11:20:49;;;;;;;9.35;3.78;;;6.60;99.90;;;;;;4986647;28;20034;-68
2021/12/18 11:23:15;;;;;;;9.73;3.80;;;6.60;99.90;;;;;;4991633;28;20774;-68
2021/12/18 11:25:41;;;;;;;11.00;3.45;;;6.60;99.90;;;;;;4985247;28;20034;-68
2021/12/18 11:28:06;;;;;;;7.07;3.20;;;6.80;99.90;;;;;;4989616;28;20034;-68
2021/12/18 11:30:32;;;;;;;5.50;2.70;;;6.60;99.90;;;;;;4988236;28;20040;-68
2021/12/18 11:32:57;;;;;;;6.55;2.67;;;6.60;99.90;;;;;;4989582;28;20061;-68
2021/12/18 11:35:23;;;;;;;3.75;1.95;;;6.60;99.90;;;;;;4972727;28;20065;-70
2021/12/18 11:37:49;;;;;;;10.75;2.20;;;6.50;99.90;;;;;;4990599;28;20072;-70
2021/12/18 11:40:14;;;;;;;5.22;3.25;;;6.40;99.90;;;;;;4985221;28;20037;-70
2021/12/18 11:42:40;;;;;;;7.45;3.55;;;8.00;99.90;;;;;;4980199;28;20140;-71
2021/12/18 11:45:05;;;;;;;3.85;2.42;;;6.60;99.90;;;;;;4990114;28;20089;-70
2021/12/18 11:47:31;;;;;;;5.75;2.25;;;6.60;99.90;;;;;;4983507;28;20038;-72
2021/12/18 11:49:56;;;;;;;7.35;2.90;;;7.50;99.90;;;;;;4988427;28;20085;-70
2021/12/18 11:52:22;;;;;;;5.97;2.30;;;6.70;99.90;;;;;;4981867;28;20038;-70
2021/12/18 11:54:49;;;;;;;7.60;2.65;;;6.60;99.90;;;;;;4985134;28;20022;-68
2021/12/18 11:57:14;;;;;;;5.80;2.55;;;6.70;99.90;;;;;;4973346;28;20126;-72
2021/12/18 11:59:40;;;;;;;12.18;3.50;;;6.70;99.90;;;;;;4984156;28;20079;-68
2021/12/18 12:02:05;;;;;;;4.07;2.42;;;6.70;99.90;;;;;;4992185;28;20050;-68
2021/12/18 12:04:30;;;;;;;9.13;4.30;;;7.60;99.90;;;;;;4987977;28;20132;-68
2021/12/18 12:06:56;;;;;;;5.18;2.83;;;6.70;99.90;;;;;;4982764;28;20038;-68
2021/12/18 12:09:25;;;;;;;7.68;3.10;;;8.10;99.90;;;;;;4985529;28;20030;-68
2021/12/18 12:11:50;;;;;;;11.43;4.10;;;7.00;99.90;;;;;;4971143;28;20066;-69
2021/12/18 12:14:16;;;;;;;15.45;5.53;;;6.70;99.90;;;;;;4989487;28;20170;-68
2021/12/18 12:16:41;;;;;;;12.20;5.03;;;6.70;99.90;;;;;;4980793;28;20041;-68
2021/12/18 12:19:07;;;;;;;4.70;2.00;;;6.80;99.90;;;;;;4986273;28;20062;-68
2021/12/18 12:21:32;;;;;;;2.45;1.83;;;6.80;99.90;;;;;;4986459;28;20030;-68
2021/12/18 12:23:58;;;;;;;3.78;2.22;;;6.80;99.90;;;;;;4983702;28;20034;-68
2021/12/18 12:26:23;;;;;;;4.38;2.10;;;6.80;99.90;;;;;;4982802;28;20375;-68
2021/12/18 12:28:49;;;;;;;6.22;2.72;;;6.80;99.90;;;;;;4982116;28;20038;-68
2021/12/18 12:31:15;;;;;;;7.35;3.40;;;7.00;99.90;;;;;;4984827;28;20046;-68
2021/12/18 12:33:41;;;;;;;10.00;4.28;;;6.80;99.90;;;;;;4977643;28;20118;-63
2021/12/18 12:36:06;;;;;;;11.40;5.32;;;6.90;99.90;;;;;;4976366;28;20127;-63
2021/12/18 12:38:32;;;;;;;5.32;2.10;;;6.90;99.90;;;;;;4978933;28;20187;-63
2021/12/18 12:40:57;;;;;;;5.15;2.35;;;6.90;99.90;;;;;;4975597;28;20109;-64
2021/12/18 12:43:25;;;;;;;4.68;2.03;;;6.90;99.90;;;;;;4980154;28;20826;-63
2021/12/18 12:45:52;;;;;;;3.47;1.60;;;6.90;99.90;;;;;;4980562;28;20026;-63
2021/12/18 12:48:17;;;;;;;7.03;2.28;;;6.90;99.90;;;;;;4988877;28;20034;-63
2021/12/18 12:50:43;;;;;;;3.65;1.80;;;6.80;99.90;;;;;;4989221;28;20042;-62
2021/12/18 12:53:08;;;;;;;5.25;2.22;;;6.80;99.90;;;;;;4980657;28;20031;-63
2021/12/18 12:55:34;;;;;;;5.53;3.10;;;6.90;99.90;;;;;;4984975;28;20116;-63
2021/12/18 12:58:00;;;;;;;4.47;2.75;;;6.90;99.90;;;;;;4987626;28;20032;-63
2021/12/18 13:00:25;;;;;;;9.65;3.75;;;6.90;99.90;;;;;;4985929;28;20046;-63
2021/12/18 13:02:51;;;;;;;9.88;4.18;;;6.90;99.90;;;;;;4987844;28;20041;-64
2021/12/18 13:05:16;;;;;;;8.32;4.25;;;6.90;99.90;;;;;;4986860;28;20115;-61
2021/12/18 13:07:42;;;;;;;12.93;6.45;;;6.90;99.90;;;;;;4983540;28;20065;-62
2021/12/18 13:10:07;;;;;;;8.70;3.83;;;6.90;99.90;;;;;;4988317;28;20905;-61
2021/12/18 13:12:33;;;;;;;5.18;3.03;;;6.90;99.90;;;;;;4988354;28;20470;-62
2021/12/18 13:14:58;;;;;;;11.50;4.68;;;7.40;99.90;;;;;;4981124;28;20041;-61
2021/12/18 13:17:24;;;;;;;9.05;4.82;;;6.80;99.90;;;;;;4984938;28;20050;-61
2021/12/18 13:19:49;;;;;;;11.25;5.97;;;6.80;99.90;;;;;;4980256;28;20747;-62
2021/12/18 13:22:15;;;;;;;7.10;4.50;;;6.80;99.90;;;;;;4983408;28;20501;-62
2021/12/18 13:24:40;;;;;;;9.95;5.55;;;6.80;99.90;;;;;;4982426;28;20049;-63
2021/12/18 13:27:05;;;;;;;8.55;5.18;;;6.80;99.90;;;;;;4977900;28;20026;-62
2021/12/18 13:29:32;;;;;;;10.63;3.47;;;6.80;99.90;;;;;;4985851;28;20044;-63
2021/12/18 13:31:58;;;;;;;8.07;4.43;;;6.80;99.90;;;;;;4983601;28;20138;-62
2021/12/18 13:34:23;;;;;;;8.43;4.28;;;6.80;99.90;;;;;;4997851;28;20034;-62
2021/12/18 13:36:49;;;;;;;6.53;3.72;;;6.80;99.90;;;;;;4985444;28;20042;-62
2021/12/18 13:39:14;;;;;;;6.72;4.10;;;6.80;99.90;;;;;;4984831;28;20014;-62
2021/12/18 13:41:40;;;;;;;13.35;7.20;;;6.80;99.90;;;;;;4998352;28;20042;-62
2021/12/18 13:44:05;;;;;;;12.32;7.22;;;6.80;99.90;;;;;;4987217;28;20038;-62
2021/12/18 13:46:31;;;;;;;13.18;8.35;;;6.90;99.90;;;;;;4982242;28;20779;-63
2021/12/18 13:48:56;;;;;;;15.60;8.25;;;7.20;99.90;;;;;;4983471;28;20042;-62
2021/12/18 13:51:22;;;;;;;15.80;10.13;;;7.20;99.90;;;;;;4991341;28;20071;-62
2021/12/18 13:53:48;;;;;;;17.08;11.50;;;8.30;99.90;;;;;;4983655;28;20038;-62
2021/12/18 13:56:13;;;;;;;15.75;9.82;;;6.90;99.90;;;;;;4985356;28;20054;-62
2021/12/18 13:58:39;;;;;;;9.48;6.05;;;6.90;99.90;;;;;;4986898;28;20114;-63
2021/12/18 14:01:05;;;;;;;8.77;5.07;;;6.90;99.90;;;;;;4982390;28;20030;-63
2021/12/18 14:03:30;;;;;;;9.60;5.85;;;6.90;99.90;;;;;;4980868;28;20498;-63
2021/12/18 14:05:56;;;;;;;11.45;4.72;;;5.20;99.90;;;;;;4994335;28;20046;-63
2021/12/18 14:08:21;;;;;;;8.48;5.07;;;6.90;99.90;;;;;;4983637;28;20037;-63
2021/12/18 14:10:47;;;;;;;8.48;4.68;;;6.90;99.90;;;;;;4991711;28;20080;-63
2021/12/18 14:13:12;;;;;;;7.60;4.32;;;6.90;99.90;;;;;;4993480;28;20030;-63
2021/12/18 14:15:40;;;;;;;8.38;4.47;;;6.90;99.90;;;;;;4985502;28;20030;-62
2021/12/18 14:18:06;;;;;;;10.20;4.70;;;6.90;99.90;;;;;;4989739;28;20049;-63
2021/12/18 14:20:31;;;;;;;8.27;4.55;;;6.90;99.90;;;;;;4978358;28;20038;-63
2021/12/18 14:23:00;;;;;;;11.05;5.68;;;6.90;99.90;;;;;;4985852;28;20486;-63